createdAt,value
2019-05-17T00:02:27.107Z,5.47
2019-05-17T00:04:56.409Z,5.30
2019-05-17T00:07:23.633Z,5.50
2019-05-17T00:09:51.132Z,6.10
2019-05-17T00:12:19.392Z,5.77
2019-05-17T00:14:47.261Z,5.00
2019-05-17T00:17:14.561Z,6.23
2019-05-17T00:19:42.184Z,6.43
2019-05-17T00:22:10.695Z,7.50
2019-05-17T00:24:38.962Z,4.90
2019-05-17T00:27:07.341Z,6.27
2019-05-17T00:29:37.028Z,6.77
2019-05-17T00:32:06.272Z,6.67
2019-05-17T00:34:32.491Z,6.20
2019-05-17T00:37:00.053Z,6.60
2019-05-17T00:39:28.348Z,5.90
2019-05-17T00:41:57.330Z,5.77
2019-05-17T00:44:27.085Z,5.93
2019-05-17T00:46:52.504Z,5.72
2019-05-17T00:49:20.010Z,5.50
2019-05-17T00:51:47.574Z,4.93
2019-05-17T00:54:17.250Z,5.93
2019-05-17T00:56:42.588Z,4.63
2019-05-17T00:59:10.072Z,7.10
2019-05-17T01:01:37.621Z,5.87
2019-05-17T01:04:06.858Z,5.30
2019-05-17T01:06:33.534Z,8.80
2019-05-17T01:09:04.104Z,8.03
2019-05-17T01:11:28.705Z,6.57
2019-05-17T01:13:58.505Z,5.70
2019-05-17T01:16:23.748Z,8.33
2019-05-17T01:18:52.017Z,7.50
2019-05-17T01:21:19.566Z,6.70
2019-05-17T01:23:47.066Z,6.97
2019-05-17T01:26:15.347Z,6.90
2019-05-17T01:28:43.713Z,6.10
2019-05-17T01:31:11.976Z,6.10
2019-05-17T01:33:39.466Z,6.30
2019-05-17T01:36:07.711Z,6.63
2019-05-17T01:38:37.411Z,6.73
2019-05-17T01:41:03.662Z,5.13
2019-05-17T01:43:31.192Z,7.33
2019-05-17T01:45:58.724Z,6.60
2019-05-17T01:48:27.188Z,7.23
2019-05-17T01:50:56.833Z,7.00
2019-05-17T01:53:22.912Z,6.23
2019-05-17T01:55:50.439Z,5.80
2019-05-17T01:58:18.059Z,6.43
2019-05-17T02:00:46.543Z,5.43
2019-05-17T02:03:13.173Z,5.63
2019-05-17T02:05:40.681Z,6.20
2019-05-17T02:08:08.202Z,6.12
2019-05-17T02:10:37.733Z,5.20
2019-05-17T02:13:06.631Z,8.53
2019-05-17T02:15:33.877Z,6.77
2019-05-17T02:18:01.372Z,7.17
2019-05-17T02:20:29.065Z,5.60
2019-05-17T02:22:56.896Z,7.53
2019-05-17T02:25:27.196Z,5.43
2019-05-17T02:27:52.932Z,6.67
2019-05-17T02:30:23.363Z,9.97
2019-05-17T02:32:48.752Z,7.43
2019-05-17T02:35:17.099Z,6.10
2019-05-17T02:37:44.665Z,6.83
2019-05-17T02:40:14.416Z,6.33
2019-05-17T02:42:42.664Z,9.53
2019-05-17T02:45:07.996Z,7.30
2019-05-17T02:47:35.487Z,6.43
2019-05-17T02:50:05.652Z,6.50
2019-05-17T02:52:33.096Z,7.30
2019-05-17T02:55:04.002Z,7.20
2019-05-17T02:57:29.724Z,7.80
2019-05-17T02:59:57.312Z,5.50
2019-05-17T03:02:27.939Z,7.70
2019-05-17T03:04:53.244Z,5.40
2019-05-17T03:07:23.262Z,6.00
2019-05-17T03:09:48.462Z,6.47
2019-05-17T03:12:15.966Z,6.47
2019-05-17T03:14:44.322Z,5.90
2019-05-17T03:17:14.080Z,6.30
2019-05-17T03:19:39.563Z,5.93
2019-05-17T03:22:08.183Z,10.60
2019-05-17T03:24:36.103Z,7.80
2019-05-17T03:27:04.787Z,6.03
2019-05-17T03:29:33.576Z,6.47
2019-05-17T03:32:07.489Z,6.87
2019-05-17T03:34:29.042Z,6.20
2019-05-17T03:36:57.423Z,8.00
2019-05-17T03:39:25.898Z,5.90
2019-05-17T03:41:53.724Z,6.17
2019-05-17T03:44:22.596Z,7.93
2019-05-17T03:46:49.304Z,6.70
2019-05-17T03:49:16.852Z,8.57
2019-05-17T03:51:44.343Z,4.83
2019-05-17T03:54:13.761Z,7.80
2019-05-17T03:56:42.506Z,6.37
2019-05-17T03:59:07.008Z,7.07
2019-05-17T04:01:34.655Z,7.23
2019-05-17T04:04:02.797Z,6.90
2019-05-17T04:06:32.974Z,7.23
2019-05-17T04:08:58.909Z,6.80
2019-05-17T04:11:31.733Z,7.53
2019-05-17T04:13:54.861Z,7.27
2019-05-17T04:16:23.885Z,8.57
2019-05-17T04:18:53.297Z,6.53
2019-05-17T04:21:18.301Z,7.43
2019-05-17T04:23:46.738Z,8.47
2019-05-17T04:26:14.549Z,5.77
2019-05-17T04:28:44.039Z,7.97
2019-05-17T04:31:13.362Z,6.90
2019-05-17T04:33:42.672Z,6.93
2019-05-17T04:36:08.462Z,7.50
2019-05-17T04:38:36.839Z,7.27
2019-05-17T04:41:04.435Z,7.40
2019-05-17T04:43:33.589Z,7.80
2019-05-17T04:46:02.714Z,8.03
2019-05-17T04:48:32.313Z,7.30
2019-05-17T04:50:57.016Z,6.67
2019-05-17T04:53:24.596Z,7.40
2019-05-17T04:55:54.057Z,7.17
2019-05-17T04:58:23.210Z,6.50
2019-05-17T05:00:48.753Z,6.73
2019-05-17T05:03:16.273Z,5.90
2019-05-17T05:05:43.845Z,8.77
2019-05-17T05:08:13.037Z,7.43
2019-05-17T05:10:38.972Z,8.23
2019-05-17T05:13:08.006Z,7.40
2019-05-17T05:15:39.109Z,7.97
2019-05-17T05:18:06.613Z,7.20
2019-05-17T05:20:34.244Z,6.80
2019-05-17T05:23:02.716Z,7.23
2019-05-17T05:25:29.365Z,6.83
2019-05-17T05:27:57.757Z,6.53
2019-05-17T05:30:26.156Z,8.70
2019-05-17T05:32:54.412Z,7.50
2019-05-17T05:35:22.444Z,6.73
2019-05-17T05:37:52.464Z,6.17
2019-05-17T05:40:18.774Z,7.83
2019-05-17T05:42:47.231Z,6.77
2019-05-17T05:45:14.840Z,7.57
2019-05-17T05:47:42.456Z,6.53
2019-05-17T05:50:12.173Z,7.63
2019-05-17T05:52:38.402Z,6.27
2019-05-17T05:55:05.898Z,5.70
2019-05-17T05:57:34.225Z,9.00
2019-05-17T06:00:02.295Z,7.27
2019-05-17T06:02:29.318Z,7.77
2019-05-17T06:04:56.795Z,6.10
2019-05-17T06:07:24.320Z,7.80
2019-05-17T06:09:52.693Z,6.83
2019-05-17T06:12:26.936Z,7.32
2019-05-17T06:14:47.702Z,7.30
2019-05-17T06:17:15.307Z,6.83
2019-05-17T06:19:43.647Z,7.20
2019-05-17T06:22:12.005Z,6.87
2019-05-17T06:24:38.982Z,6.70
2019-05-17T06:27:06.565Z,7.50
2019-05-17T06:29:34.057Z,7.07
2019-05-17T06:32:02.694Z,8.40
2019-05-17T06:34:32.813Z,9.27
2019-05-17T06:36:58.360Z,6.63
2019-05-17T06:39:26.755Z,6.87
2019-05-17T06:41:55.246Z,6.50
2019-05-17T06:44:24.649Z,9.30
2019-05-17T06:46:52.894Z,8.37
2019-05-17T06:49:22.430Z,7.30
2019-05-17T06:51:48.738Z,6.93
2019-05-17T06:54:16.381Z,6.43
2019-05-17T06:56:43.900Z,6.83
2019-05-17T06:59:12.150Z,6.27
2019-05-17T07:01:41.046Z,7.93
2019-05-17T07:04:07.309Z,7.33
2019-05-17T07:06:35.552Z,9.10
2019-05-17T07:09:04.349Z,6.77
2019-05-17T07:11:32.883Z,8.80
2019-05-17T07:14:00.500Z,9.97
2019-05-17T07:16:29.951Z,9.37
2019-05-17T07:18:56.374Z,8.87
2019-05-17T07:21:24.625Z,8.27
2019-05-17T07:23:52.207Z,10.30
2019-05-17T07:26:19.858Z,9.83
2019-05-17T07:28:49.777Z,10.13
2019-05-17T07:31:15.783Z,7.40
2019-05-17T07:33:43.259Z,7.43
2019-05-17T07:36:10.794Z,8.07
2019-05-17T07:38:39.653Z,8.87
2019-05-17T07:41:05.805Z,7.93
2019-05-17T07:43:33.670Z,10.03
2019-05-17T07:46:02.013Z,9.87
2019-05-17T07:48:31.362Z,8.57
2019-05-17T07:50:59.388Z,9.10
2019-05-17T07:53:26.048Z,7.10
2019-05-17T07:55:54.310Z,8.97
2019-05-17T07:58:22.090Z,8.33
2019-05-17T08:00:51.230Z,7.87
2019-05-17T08:03:17.220Z,8.63
2019-05-17T08:05:44.696Z,7.80
2019-05-17T08:08:13.052Z,7.33
2019-05-17T08:10:41.250Z,7.40
2019-05-17T08:13:25.078Z,6.33
2019-05-17T08:15:36.343Z,7.10
2019-05-17T08:18:03.875Z,6.93
2019-05-17T08:20:31.595Z,6.47
2019-05-17T08:22:59.555Z,9.03
2019-05-17T08:25:26.590Z,7.83
2019-05-17T08:27:54.090Z,8.40
2019-05-17T08:30:21.655Z,7.53
2019-05-17T08:32:50.517Z,8.33
2019-05-17T08:35:19.699Z,9.30
2019-05-17T08:37:45.323Z,7.40
2019-05-17T08:40:15.230Z,8.03
2019-05-17T08:42:40.835Z,9.77
2019-05-17T08:45:09.694Z,7.77
2019-05-17T08:47:35.343Z,10.33
2019-05-17T08:50:06.056Z,7.17
2019-05-17T08:52:34.353Z,6.67
2019-05-17T08:55:01.851Z,7.23
2019-05-17T08:57:30.324Z,6.70
2019-05-17T08:59:56.986Z,8.20
2019-05-17T09:02:24.493Z,7.20
2019-05-17T09:04:52.068Z,7.93
2019-05-17T09:07:20.439Z,7.43
2019-05-17T09:09:50.105Z,6.77
2019-05-17T09:12:15.779Z,7.62
2019-05-17T09:14:43.349Z,7.23
2019-05-17T09:17:10.851Z,7.67
2019-05-17T09:19:39.506Z,6.67
2019-05-17T09:22:05.857Z,6.47
2019-05-17T09:24:34.197Z,7.33
2019-05-17T09:27:01.797Z,6.80
2019-05-17T09:29:30.163Z,6.17
2019-05-17T09:31:59.927Z,7.00
2019-05-17T09:34:25.853Z,8.23
2019-05-17T09:36:53.382Z,7.57
2019-05-17T09:39:21.627Z,7.47
2019-05-17T09:41:50.305Z,8.63
2019-05-17T09:44:16.704Z,5.53
2019-05-17T09:46:45.001Z,7.43
2019-05-17T09:49:12.478Z,7.13
2019-05-17T09:51:40.183Z,7.27
2019-05-17T09:54:10.092Z,7.93
2019-05-17T09:56:36.016Z,8.07
2019-05-17T09:59:04.515Z,7.80
2019-05-17T10:01:31.997Z,6.80
2019-05-17T10:04:00.457Z,9.13
2019-05-17T10:06:28.131Z,6.07
2019-05-17T10:08:55.635Z,9.43
2019-05-17T10:11:23.121Z,8.63
2019-05-17T10:13:50.720Z,9.77
2019-05-17T10:16:20.314Z,8.03
2019-05-17T10:18:45.779Z,8.63
2019-05-17T10:21:14.166Z,8.70
2019-05-17T10:23:41.703Z,8.07
2019-05-17T10:26:10.327Z,8.77
2019-05-17T10:28:39.829Z,8.43
2019-05-17T10:31:05.213Z,6.93
2019-05-17T10:33:33.475Z,10.20
2019-05-17T10:36:01.063Z,7.73
2019-05-17T10:38:29.975Z,11.13
2019-05-17T10:40:57.563Z,8.90
2019-05-17T10:43:25.048Z,14.83
2019-05-17T10:45:52.622Z,7.70
2019-05-17T10:48:21.192Z,7.67
2019-05-17T10:50:49.647Z,8.07
2019-05-17T10:53:16.242Z,6.27
2019-05-17T10:55:43.742Z,7.70
2019-05-17T10:58:11.264Z,11.30
2019-05-17T11:00:41.155Z,8.13
2019-05-17T11:03:06.398Z,8.33
2019-05-17T11:05:34.644Z,7.13
2019-05-17T11:08:02.242Z,6.13
2019-05-17T11:10:31.404Z,8.67
2019-05-17T11:12:58.891Z,7.40
2019-05-17T11:15:26.468Z,7.90
2019-05-17T11:17:53.959Z,8.37
2019-05-17T11:20:22.320Z,8.50
2019-05-17T11:22:49.913Z,7.97
2019-05-17T11:25:18.166Z,9.18
2019-05-17T11:27:45.822Z,7.17
2019-05-17T11:30:13.299Z,6.93
2019-05-17T11:32:40.849Z,8.33
2019-05-17T11:35:08.416Z,7.13
2019-05-17T11:37:35.889Z,7.60
2019-05-17T11:40:08.107Z,8.63
2019-05-17T11:42:33.029Z,8.90
2019-05-17T11:45:00.583Z,6.40
2019-05-17T11:47:28.283Z,6.07
2019-05-17T11:49:55.960Z,6.30
2019-05-17T11:52:24.596Z,5.27
2019-05-17T11:54:52.081Z,6.10
2019-05-17T11:57:19.658Z,6.67
2019-05-17T11:59:47.230Z,5.23
2019-05-17T12:02:14.798Z,5.63
2019-05-17T12:04:42.359Z,5.90
2019-05-17T12:07:09.847Z,7.20
2019-05-17T12:09:39.336Z,6.53
2019-05-17T12:12:07.060Z,4.87
2019-05-17T12:14:34.672Z,5.60
2019-05-17T12:17:02.151Z,4.93
2019-05-17T12:19:30.644Z,5.30
2019-05-17T12:21:58.895Z,5.83
2019-05-17T12:24:26.435Z,6.37
2019-05-17T12:26:53.926Z,6.33
2019-05-17T12:29:21.512Z,5.47
2019-05-17T12:31:49.764Z,8.13
2019-05-17T12:34:17.427Z,5.40
2019-05-17T12:36:44.965Z,6.13
2019-05-17T12:39:12.464Z,5.20
2019-05-17T12:41:39.976Z,6.00
2019-05-17T12:44:07.593Z,5.93
2019-05-17T12:46:35.074Z,6.43
2019-05-17T12:49:04.354Z,6.63
2019-05-17T12:51:33.023Z,4.77
2019-05-17T12:53:59.372Z,5.20
2019-05-17T12:56:27.051Z,5.63
2019-05-17T12:58:54.533Z,4.80
2019-05-17T13:01:22.824Z,5.47
2019-05-17T13:03:51.202Z,5.23
2019-05-17T13:06:19.773Z,4.93
2019-05-17T13:08:47.228Z,5.23
2019-05-17T13:11:14.783Z,6.43
2019-05-17T13:13:43.309Z,6.97
2019-05-17T13:16:17.784Z,4.25
2019-05-17T13:18:38.505Z,6.43
2019-05-17T13:21:05.990Z,6.17
2019-05-17T13:23:34.551Z,5.53
2019-05-17T13:26:02.042Z,5.37
2019-05-17T13:28:30.412Z,6.70
2019-05-17T13:30:57.933Z,5.37
2019-05-17T13:33:28.960Z,6.87
2019-05-17T13:35:53.012Z,6.97
2019-05-17T13:38:21.378Z,5.67
2019-05-17T13:40:48.865Z,5.20
2019-05-17T13:43:17.123Z,6.78
2019-05-17T13:45:45.137Z,5.40
2019-05-17T13:48:12.441Z,6.47
2019-05-17T13:50:39.976Z,5.90
2019-05-17T13:53:07.477Z,7.27
2019-05-17T13:55:35.131Z,6.93
2019-05-17T13:58:02.707Z,6.13
2019-05-17T14:00:30.199Z,7.30
2019-05-17T14:02:58.554Z,6.67
2019-05-17T14:05:26.497Z,6.13
2019-05-17T14:07:53.973Z,7.07
2019-05-17T14:10:27.667Z,7.73
2019-05-17T14:12:49.116Z,5.57
2019-05-17T14:15:16.699Z,5.40
2019-05-17T14:17:45.101Z,7.77
2019-05-17T14:20:12.576Z,6.83
2019-05-17T14:22:40.053Z,8.00
2019-05-17T14:25:07.646Z,6.33
2019-05-17T14:27:35.247Z,7.37
2019-05-17T14:30:05.211Z,7.33
2019-05-17T14:32:32.712Z,4.80
2019-05-17T14:35:00.259Z,5.13
2019-05-17T14:37:28.638Z,5.77
2019-05-17T14:39:56.155Z,6.80
2019-05-17T14:42:23.630Z,6.57
2019-05-17T14:44:51.138Z,6.07
2019-05-17T14:47:19.207Z,4.83
2019-05-17T14:49:47.132Z,5.73
2019-05-17T14:52:14.843Z,5.70
2019-05-17T14:54:42.406Z,9.33
2019-05-17T14:57:10.021Z,5.97
2019-05-17T14:59:37.504Z,7.73
2019-05-17T15:02:05.214Z,6.10
2019-05-17T15:04:32.700Z,6.67
2019-05-17T15:07:01.148Z,6.07
2019-05-17T15:09:28.918Z,5.07
2019-05-17T15:11:57.736Z,5.40
2019-05-17T15:14:25.295Z,3.77
2019-05-17T15:16:52.855Z,6.03
2019-05-17T15:19:20.337Z,5.13
2019-05-17T15:21:48.706Z,5.57
2019-05-17T15:24:16.192Z,4.63
2019-05-17T15:26:43.827Z,6.07
2019-05-17T15:29:11.339Z,4.83
2019-05-17T15:31:39.767Z,4.17
2019-05-17T15:34:07.356Z,4.83
2019-05-17T15:36:35.614Z,4.93
2019-05-17T15:39:04.407Z,6.43
2019-05-17T15:41:32.325Z,5.80
2019-05-17T15:44:00.052Z,6.20
2019-05-17T15:46:27.624Z,7.17
2019-05-17T15:48:55.875Z,5.80
2019-05-17T15:51:23.381Z,8.43
2019-05-17T15:53:51.630Z,5.77
2019-05-17T15:56:19.322Z,5.70
2019-05-17T15:58:47.575Z,5.90
2019-05-17T16:01:15.075Z,6.23
2019-05-17T16:03:43.328Z,6.50
2019-05-17T16:06:10.852Z,10.47
2019-05-17T16:08:38.357Z,6.23
2019-05-17T16:11:05.852Z,7.57
2019-05-17T16:13:33.984Z,7.50
2019-05-17T16:16:01.049Z,5.67
2019-05-17T16:18:29.426Z,7.10
2019-05-17T16:20:56.991Z,5.67
2019-05-17T16:23:24.478Z,6.60
2019-05-17T16:25:53.096Z,6.80
2019-05-17T16:28:20.588Z,5.87
2019-05-17T16:30:48.985Z,5.73
2019-05-17T16:33:18.091Z,13.40
2019-05-17T16:35:45.666Z,6.80
2019-05-17T16:38:14.150Z,5.43
2019-05-17T16:40:41.814Z,7.30
2019-05-17T16:43:17.638Z,10.00
2019-05-17T16:45:36.825Z,6.12
2019-05-17T16:48:04.360Z,6.20
2019-05-17T16:50:31.865Z,7.20
2019-05-17T16:53:05.844Z,5.13
2019-05-17T16:55:26.991Z,7.40
2019-05-17T16:57:54.482Z,7.53
2019-05-17T17:00:26.257Z,7.30
2019-05-17T17:02:53.808Z,5.40
2019-05-17T17:05:21.370Z,6.23
2019-05-17T17:07:49.602Z,6.07
2019-05-17T17:10:17.798Z,6.77
2019-05-17T17:12:46.045Z,6.23
2019-05-17T17:15:13.652Z,6.93
2019-05-17T17:17:41.134Z,5.63
2019-05-17T17:20:09.490Z,8.10
2019-05-17T17:22:37.065Z,5.43
2019-05-17T17:25:06.070Z,7.07
2019-05-17T17:27:34.428Z,5.63
2019-05-17T17:30:05.233Z,7.57
2019-05-17T17:32:32.836Z,6.00
2019-05-17T17:35:00.398Z,7.67
2019-05-17T17:37:28.111Z,6.57
2019-05-17T17:39:55.587Z,7.10
2019-05-17T17:42:23.295Z,8.60
2019-05-17T17:44:50.795Z,8.43
2019-05-17T17:47:18.325Z,7.00
2019-05-17T17:49:45.893Z,6.97
2019-05-17T17:52:13.490Z,7.13
2019-05-17T17:54:41.835Z,6.33
2019-05-17T17:57:09.319Z,6.80
2019-05-17T17:59:37.873Z,7.90
2019-05-17T18:02:05.647Z,7.00
2019-05-17T18:04:33.122Z,7.30
2019-05-17T18:07:00.671Z,6.70
2019-05-17T18:09:28.184Z,5.83
2019-05-17T18:11:55.664Z,5.53
2019-05-17T18:14:23.167Z,6.13
2019-05-17T18:16:50.657Z,6.07
2019-05-17T18:19:19.030Z,7.07
2019-05-17T18:21:47.286Z,7.00
2019-05-17T18:24:15.003Z,6.40
2019-05-17T18:26:42.515Z,6.17
2019-05-17T18:29:10.000Z,6.63
2019-05-17T18:31:38.370Z,5.30
2019-05-17T18:34:05.842Z,5.60
2019-05-17T18:36:33.626Z,6.67
2019-05-17T18:39:01.885Z,5.97
2019-05-17T18:41:29.380Z,8.30
2019-05-17T18:43:58.551Z,6.93
2019-05-17T18:46:26.114Z,5.53
2019-05-17T18:48:53.692Z,7.47
2019-05-17T18:51:21.195Z,5.60
2019-05-17T18:53:48.714Z,6.20
2019-05-17T18:56:16.308Z,5.63
2019-05-17T18:58:43.787Z,6.63
2019-05-17T19:01:11.298Z,6.93
2019-05-17T19:03:38.798Z,7.90
2019-05-17T19:06:06.306Z,5.93
2019-05-17T19:08:33.779Z,7.47
2019-05-17T19:11:02.792Z,7.20
2019-05-17T19:13:31.178Z,7.50
2019-05-17T19:16:00.457Z,5.90
2019-05-17T19:18:27.963Z,5.07
2019-05-17T19:20:56.210Z,6.17
2019-05-17T19:23:25.959Z,6.90
2019-05-17T19:25:54.202Z,5.33
2019-05-17T19:28:22.935Z,6.43
2019-05-17T19:30:50.413Z,5.97
2019-05-17T19:33:17.912Z,6.77
2019-05-17T19:35:45.433Z,7.43
2019-05-17T19:38:12.911Z,7.40
2019-05-17T19:40:40.446Z,8.50
2019-05-17T19:43:08.598Z,6.00
2019-05-17T19:45:36.083Z,7.27
2019-05-17T19:48:04.625Z,7.03
2019-05-17T19:50:32.118Z,5.67
2019-05-17T19:53:00.399Z,7.70
2019-05-17T19:55:28.754Z,9.20
2019-05-17T19:57:56.263Z,7.37
2019-05-17T20:00:23.890Z,6.37
2019-05-17T20:02:51.373Z,8.70
2019-05-17T20:05:19.759Z,9.50
2019-05-17T20:07:48.005Z,8.43
2019-05-17T20:10:15.486Z,6.93
2019-05-17T20:12:42.989Z,8.87
2019-05-17T20:15:17.236Z,5.77
2019-05-17T20:17:38.836Z,6.93
2019-05-17T20:20:06.333Z,7.03
2019-05-17T20:22:33.906Z,6.80
2019-05-17T20:25:01.477Z,8.13
2019-05-17T20:27:29.959Z,5.53
2019-05-17T20:29:57.523Z,7.50
2019-05-17T20:32:25.000Z,7.53
2019-05-17T20:34:52.683Z,8.87
2019-05-17T20:37:21.006Z,7.83
2019-05-17T20:39:48.499Z,7.65
2019-05-17T20:42:16.008Z,8.37
2019-05-17T20:44:43.539Z,6.57
2019-05-17T20:47:11.024Z,7.23
2019-05-17T20:49:39.395Z,8.10
2019-05-17T20:52:07.767Z,8.13
2019-05-17T20:54:36.857Z,7.47
2019-05-17T20:57:04.419Z,7.47
2019-05-17T20:59:31.912Z,7.70
2019-05-17T21:02:01.186Z,7.47
2019-05-17T21:04:28.760Z,6.57
2019-05-17T21:06:57.076Z,8.10
2019-05-17T21:09:24.599Z,10.13
2019-05-17T21:11:52.096Z,7.17
2019-05-17T21:14:19.578Z,7.43
2019-05-17T21:16:47.110Z,5.27
2019-05-17T21:19:15.465Z,7.33
2019-05-17T21:21:42.951Z,7.27
2019-05-17T21:24:11.791Z,8.63
2019-05-17T21:26:39.516Z,9.20
2019-05-17T21:29:07.876Z,8.57
2019-05-17T21:31:35.535Z,8.93
2019-05-17T21:34:03.614Z,10.77
2019-05-17T21:36:31.090Z,8.93
2019-05-17T21:38:59.345Z,9.73
2019-05-17T21:41:26.839Z,7.80
2019-05-17T21:43:55.104Z,9.80
2019-05-17T21:46:22.588Z,9.37
2019-05-17T21:48:50.953Z,7.53
2019-05-17T21:51:18.452Z,11.97
2019-05-17T21:53:45.995Z,9.67
2019-05-17T21:56:14.362Z,9.57
2019-05-17T21:58:41.940Z,8.20
2019-05-17T22:01:11.083Z,8.73
2019-05-17T22:03:38.614Z,11.80
2019-05-17T22:06:06.872Z,12.33
2019-05-17T22:08:34.370Z,9.43
2019-05-17T22:11:01.858Z,10.57
2019-05-17T22:13:30.377Z,11.30
2019-05-17T22:15:57.885Z,11.27
2019-05-17T22:18:25.531Z,12.43
2019-05-17T22:20:53.889Z,10.53
2019-05-17T22:23:21.389Z,10.68
2019-05-17T22:25:49.070Z,10.33
2019-05-17T22:28:17.663Z,11.97
2019-05-17T22:30:45.223Z,10.23
2019-05-17T22:33:12.855Z,9.57
2019-05-17T22:35:41.236Z,10.57
2019-05-17T22:38:09.603Z,7.53
2019-05-17T22:40:37.131Z,11.30
2019-05-17T22:43:04.811Z,15.03
2019-05-17T22:45:32.311Z,11.53
2019-05-17T22:47:59.968Z,10.03
2019-05-17T22:50:27.450Z,11.67
2019-05-17T22:52:55.698Z,11.13
2019-05-17T22:55:23.946Z,12.23
2019-05-17T22:57:51.556Z,11.70
2019-05-17T23:00:19.139Z,12.50
2019-05-17T23:02:47.554Z,14.00
2019-05-17T23:05:15.038Z,13.07
2019-05-17T23:07:42.626Z,11.73
2019-05-17T23:10:10.182Z,10.70
2019-05-17T23:12:37.693Z,11.97
2019-05-17T23:15:05.991Z,13.03
2019-05-17T23:17:33.489Z,11.53
2019-05-17T23:20:01.006Z,14.00
2019-05-17T23:22:28.485Z,10.37
2019-05-17T23:24:55.986Z,12.33
2019-05-17T23:27:23.545Z,13.43
2019-05-17T23:29:51.828Z,11.43
2019-05-17T23:32:19.304Z,10.80
2019-05-17T23:34:46.799Z,12.20
2019-05-17T23:37:14.294Z,12.17
2019-05-17T23:39:41.883Z,12.50
2019-05-17T23:42:09.553Z,11.87
2019-05-17T23:44:38.646Z,10.87
2019-05-17T23:47:07.510Z,11.67
2019-05-17T23:49:33.672Z,11.43
2019-05-17T23:52:01.390Z,12.37
2019-05-17T23:54:29.012Z,11.70
2019-05-17T23:56:58.008Z,12.03
2019-05-17T23:59:25.499Z,9.47
